createdAt,value
2022-12-06T00:02:13.069Z,2.50
2022-12-06T00:04:40.137Z,2.78
2022-12-06T00:07:07.273Z,2.53
2022-12-06T00:09:34.094Z,2.50
2022-12-06T00:12:00.965Z,2.58
2022-12-06T00:14:28.309Z,2.45
2022-12-06T00:16:55.530Z,2.70
2022-12-06T00:19:23.748Z,2.80
2022-12-06T00:21:51.204Z,2.63
2022-12-06T00:24:20.845Z,2.38
2022-12-06T00:26:54.072Z,2.63
2022-12-06T00:29:23.871Z,2.53
2022-12-06T00:31:52.130Z,2.30
2022-12-06T00:34:20.294Z,2.42
2022-12-06T00:36:49.888Z,2.33
2022-12-06T00:39:18.665Z,2.35
2022-12-06T00:41:51.216Z,2.40
2022-12-06T00:44:18.961Z,2.40
2022-12-06T00:46:45.899Z,2.20
2022-12-06T00:49:12.950Z,2.45
2022-12-06T00:51:40.701Z,2.42
2022-12-06T00:54:08.910Z,2.40
2022-12-06T00:56:37.249Z,2.25
2022-12-06T00:59:05.939Z,2.42
2022-12-06T01:01:36.347Z,2.25
2022-12-06T01:04:06.382Z,2.20
2022-12-06T01:06:35.015Z,3.28
2022-12-06T01:09:07.638Z,2.30
2022-12-06T01:11:34.999Z,2.17
2022-12-06T01:14:02.449Z,2.15
2022-12-06T01:16:31.639Z,2.35
2022-12-06T01:19:01.824Z,2.65
2022-12-06T01:21:29.639Z,2.40
2022-12-06T01:23:56.965Z,2.40
2022-12-06T01:26:26.560Z,2.30
2022-12-06T01:28:54.150Z,2.17
2022-12-06T01:31:21.642Z,2.30
2022-12-06T01:33:48.683Z,2.05
2022-12-06T01:36:20.138Z,2.30
2022-12-06T01:38:51.937Z,2.00
2022-12-06T01:41:20.979Z,2.20
2022-12-06T01:43:48.529Z,2.35
2022-12-06T01:46:29.809Z,2.13
2022-12-06T01:49:21.634Z,2.15
2022-12-06T01:52:02.015Z,2.15
2022-12-06T01:54:29.698Z,2.17
2022-12-06T01:56:57.927Z,2.42
2022-12-06T01:59:26.003Z,2.30
2022-12-06T02:01:53.469Z,2.28
2022-12-06T02:04:21.730Z,2.60
2022-12-06T02:06:50.359Z,2.30
2022-12-06T02:09:18.506Z,2.22
2022-12-06T02:11:47.429Z,2.22
2022-12-06T02:14:19.625Z,2.20
2022-12-06T02:16:55.386Z,2.58
2022-12-06T02:19:44.406Z,2.35
2022-12-06T02:22:32.608Z,2.30
2022-12-06T02:25:17.473Z,2.42
2022-12-06T02:27:56.227Z,2.88
2022-12-06T02:30:53.156Z,2.45
2022-12-06T02:33:25.421Z,3.00
2022-12-06T02:36:08.780Z,2.55
2022-12-06T02:38:43.527Z,2.55
2022-12-06T02:41:25.532Z,2.67
2022-12-06T02:43:58.498Z,2.72
2022-12-06T02:46:29.877Z,2.70
2022-12-06T02:48:59.731Z,2.80
2022-12-06T02:51:29.985Z,2.70
2022-12-06T02:53:59.897Z,2.88
2022-12-06T02:56:28.348Z,2.83
2022-12-06T02:58:56.195Z,2.70
2022-12-06T03:01:27.445Z,2.70
2022-12-06T03:04:04.514Z,2.38
2022-12-06T03:06:54.790Z,2.70
2022-12-06T03:09:43.340Z,2.42
2022-12-06T03:12:33.095Z,2.38
2022-12-06T03:14:59.897Z,2.67
2022-12-06T03:17:48.266Z,2.60
2022-12-06T03:32:33.595Z,2.80
2022-12-06T03:35:05.270Z,2.60
2022-12-06T03:37:33.968Z,2.28
2022-12-06T03:40:14.047Z,2.42
2022-12-06T03:42:41.049Z,2.53
2022-12-06T03:45:11.613Z,2.88
2022-12-06T03:47:46.338Z,2.78
2022-12-06T03:50:39.566Z,2.60
2022-12-06T03:53:06.446Z,2.70
2022-12-06T03:55:33.419Z,2.40
2022-12-06T03:58:00.152Z,2.85
2022-12-06T04:00:27.052Z,2.80
2022-12-06T04:02:54.151Z,2.80
2022-12-06T04:05:21.024Z,2.80
2022-12-06T04:07:48.631Z,2.60
2022-12-06T04:10:15.511Z,2.47
2022-12-06T04:13:00.753Z,2.88
2022-12-06T04:15:34.230Z,2.63
2022-12-06T04:18:13.407Z,2.60
2022-12-06T04:21:20.365Z,2.50
2022-12-06T04:23:49.724Z,2.80
2022-12-06T04:26:19.607Z,2.83
2022-12-06T04:29:05.670Z,2.80
2022-12-06T04:31:51.909Z,2.70
2022-12-06T04:34:38.089Z,2.95
2022-12-06T04:37:24.595Z,2.70
2022-12-06T04:39:51.591Z,2.83
2022-12-06T04:42:37.929Z,2.80
2022-12-06T04:45:07.112Z,2.85
2022-12-06T04:47:33.953Z,3.10
2022-12-06T04:50:01.108Z,3.03
2022-12-06T04:52:34.046Z,3.10
2022-12-06T04:55:03.001Z,3.10
2022-12-06T04:57:30.063Z,3.08
2022-12-06T04:59:56.904Z,3.13
2022-12-06T05:02:23.858Z,3.33
2022-12-06T05:04:50.814Z,3.22
2022-12-06T05:07:17.808Z,3.33
2022-12-06T05:09:45.051Z,3.60
2022-12-06T05:12:12.079Z,3.63
2022-12-06T05:14:39.104Z,3.08
2022-12-06T05:17:06.618Z,4.00
2022-12-06T05:19:33.598Z,3.45
2022-12-06T05:22:00.924Z,3.65
2022-12-06T05:32:41.640Z,3.80
2022-12-06T05:53:12.299Z,4.30
2022-12-06T06:07:05.065Z,3.80
2022-12-06T06:09:31.907Z,4.18
2022-12-06T06:11:58.889Z,4.63
2022-12-06T06:14:25.824Z,4.30
2022-12-06T06:16:52.771Z,3.85
2022-12-06T06:19:20.373Z,3.75
2022-12-06T06:21:47.422Z,3.70
2022-12-06T06:24:14.286Z,4.10
2022-12-06T06:26:41.117Z,4.20
2022-12-06T06:29:08.174Z,4.10
2022-12-06T06:31:35.475Z,4.03
2022-12-06T06:34:02.482Z,4.53
2022-12-06T06:36:29.336Z,3.85
2022-12-06T06:38:56.461Z,4.15
2022-12-06T06:41:23.232Z,3.95
2022-12-06T06:43:50.450Z,3.88
2022-12-06T06:46:17.301Z,3.60
2022-12-06T06:48:44.183Z,3.85
2022-12-06T06:51:13.129Z,3.40
2022-12-06T06:53:40.461Z,3.83
2022-12-06T06:56:07.760Z,3.85
2022-12-06T06:58:34.546Z,3.55
2022-12-06T07:01:03.034Z,3.45
2022-12-06T07:03:30.299Z,3.78
2022-12-06T07:06:15.130Z,3.50
2022-12-06T07:08:42.936Z,3.50
2022-12-06T07:11:12.547Z,4.10
2022-12-06T07:13:41.437Z,4.13
2022-12-06T07:16:14.560Z,3.70
2022-12-06T07:18:44.667Z,4.22
2022-12-06T07:21:14.582Z,4.15
2022-12-06T07:23:41.455Z,3.70
2022-12-06T07:26:14.724Z,3.40
2022-12-06T07:28:43.616Z,3.38
2022-12-06T07:31:13.175Z,3.60
2022-12-06T07:33:40.865Z,3.65
2022-12-06T07:36:13.274Z,4.13
2022-12-06T07:38:42.491Z,3.72
2022-12-06T07:41:30.894Z,3.90
2022-12-06T07:44:31.545Z,4.47
2022-12-06T07:47:00.008Z,4.15
2022-12-06T07:49:27.145Z,3.75
2022-12-06T07:51:55.078Z,3.88
2022-12-06T07:54:23.341Z,3.80
2022-12-06T07:56:50.346Z,4.18
2022-12-06T07:59:18.651Z,3.58
2022-12-06T08:01:45.631Z,3.90
2022-12-06T08:04:12.543Z,4.05
2022-12-06T08:06:40.215Z,3.83
2022-12-06T08:09:07.320Z,3.60
2022-12-06T08:11:34.829Z,3.22
2022-12-06T08:14:02.389Z,3.42
2022-12-06T08:16:29.545Z,3.35
2022-12-06T08:18:56.777Z,3.50
2022-12-06T08:21:26.367Z,3.40
2022-12-06T08:23:54.792Z,3.30
2022-12-06T08:26:22.191Z,3.30
2022-12-06T08:28:49.208Z,3.30
2022-12-06T08:31:21.749Z,3.58
2022-12-06T08:33:48.728Z,3.28
2022-12-06T08:36:18.017Z,3.00
2022-12-06T08:38:45.850Z,3.33
2022-12-06T08:41:31.872Z,3.28
2022-12-06T08:44:00.529Z,3.28
2022-12-06T08:46:28.813Z,2.92
2022-12-06T08:48:56.189Z,3.25
2022-12-06T08:51:23.183Z,3.10
2022-12-06T08:53:51.702Z,3.28
2022-12-06T08:56:19.107Z,3.08
2022-12-06T08:58:46.194Z,3.25
2022-12-06T09:01:26.941Z,3.67
2022-12-06T09:03:55.004Z,3.20
2022-12-06T09:06:22.797Z,3.20
2022-12-06T09:08:49.764Z,3.20
2022-12-06T09:11:17.339Z,3.53
2022-12-06T09:13:44.944Z,3.30
2022-12-06T09:16:15.791Z,3.13
2022-12-06T09:18:43.946Z,2.95
2022-12-06T09:21:17.651Z,3.08
2022-12-06T09:23:44.813Z,3.58
2022-12-06T09:26:12.603Z,3.25
2022-12-06T09:28:41.628Z,3.30
2022-12-06T09:31:09.896Z,3.40
2022-12-06T09:33:37.444Z,3.38
2022-12-06T09:36:14.856Z,3.20
2022-12-06T09:38:43.794Z,3.35
2022-12-06T09:41:34.144Z,3.40
2022-12-06T09:44:22.853Z,2.63
2022-12-06T09:47:04.826Z,3.20
2022-12-06T09:50:08.824Z,3.33
2022-12-06T09:52:49.712Z,3.08
2022-12-06T09:55:35.509Z,3.00
2022-12-06T10:18:41.432Z,2.40
2022-12-06T10:21:39.840Z,2.53
2022-12-06T10:24:25.362Z,2.30
2022-12-06T10:26:54.255Z,2.40
2022-12-06T10:29:36.104Z,2.05
2022-12-06T10:32:52.859Z,2.40
2022-12-06T10:35:41.146Z,2.80
2022-12-06T10:38:23.193Z,2.60
2022-12-06T10:41:03.618Z,2.40
2022-12-06T10:43:49.388Z,2.50
2022-12-06T10:46:56.990Z,2.20
2022-12-06T10:49:59.196Z,2.35
2022-12-06T10:52:35.697Z,2.50
2022-12-06T10:55:09.811Z,2.20
2022-12-06T10:57:56.701Z,2.60
2022-12-06T11:00:26.661Z,2.47
2022-12-06T11:03:10.689Z,2.45
2022-12-06T11:05:49.300Z,2.55
2022-12-06T11:08:35.329Z,2.55
2022-12-06T11:11:05.842Z,2.35
2022-12-06T11:13:42.210Z,2.47
2022-12-06T11:16:47.031Z,2.30
2022-12-06T11:19:44.745Z,2.20
2022-12-06T11:22:37.217Z,2.60
2022-12-06T11:25:28.432Z,2.17
2022-12-06T11:28:13.044Z,2.30
2022-12-06T11:30:39.982Z,2.38
2022-12-06T11:33:09.073Z,2.30
2022-12-06T11:35:37.246Z,2.55
2022-12-06T11:38:07.442Z,2.50
2022-12-06T11:40:48.358Z,2.33
2022-12-06T11:43:25.348Z,2.28
2022-12-06T11:45:54.072Z,2.78
2022-12-06T11:48:24.221Z,2.47
2022-12-06T11:50:52.929Z,2.60
2022-12-06T11:53:47.645Z,2.20
2022-12-06T11:56:30.376Z,2.40
2022-12-06T11:59:27.116Z,2.40
2022-12-06T12:01:58.707Z,2.63
2022-12-06T12:04:31.911Z,2.38
2022-12-06T12:07:01.014Z,2.20
2022-12-06T12:09:31.711Z,2.10
2022-12-06T12:12:07.163Z,2.30
2022-12-06T12:14:38.680Z,2.70
2022-12-06T12:17:17.136Z,2.60
2022-12-06T12:20:01.082Z,2.67
2022-12-06T12:22:27.764Z,2.47
2022-12-06T12:28:27.855Z,2.53
2022-12-06T12:30:58.042Z,2.63
2022-12-06T12:33:26.526Z,2.95
2022-12-06T12:36:02.251Z,2.53
2022-12-06T12:38:37.915Z,2.53
2022-12-06T12:41:29.667Z,2.60
2022-12-06T12:44:36.477Z,3.22
2022-12-06T12:47:15.575Z,3.60
2022-12-06T12:49:42.490Z,3.70
2022-12-06T12:52:31.895Z,3.67
2022-12-06T12:55:17.686Z,3.22
2022-12-06T13:10:25.783Z,3.05
2022-12-06T13:13:21.274Z,2.97
2022-12-06T13:15:54.574Z,3.13
2022-12-06T13:18:28.376Z,3.15
2022-12-06T13:21:04.639Z,3.35
2022-12-06T13:23:36.709Z,3.08
2022-12-06T13:26:35.016Z,3.10
2022-12-06T13:29:13.668Z,3.60
2022-12-06T13:31:41.108Z,3.63
2022-12-06T13:34:39.961Z,3.85
2022-12-06T13:37:28.220Z,3.63
2022-12-06T13:39:56.126Z,3.60
2022-12-06T13:42:38.881Z,3.63
2022-12-06T13:45:27.806Z,3.72
2022-12-06T13:47:56.929Z,4.10
2022-12-06T13:50:26.871Z,3.22
2022-12-06T13:52:53.774Z,3.70
2022-12-06T13:55:30.021Z,3.67
2022-12-06T13:57:59.968Z,3.88
2022-12-06T14:00:29.952Z,3.72
2022-12-06T14:03:35.898Z,3.78
2022-12-06T14:06:41.454Z,3.40
2022-12-06T14:09:20.200Z,3.25
2022-12-06T14:11:47.658Z,3.40
2022-12-06T14:14:40.193Z,3.35
2022-12-06T14:17:38.070Z,3.20
2022-12-06T14:20:14.853Z,3.15
2022-12-06T14:22:55.031Z,2.90
2022-12-06T14:25:28.709Z,3.30
2022-12-06T14:28:13.042Z,3.45
2022-12-06T14:30:44.571Z,3.42
2022-12-06T14:33:21.915Z,3.40
2022-12-06T14:35:59.024Z,3.55
2022-12-06T14:38:33.564Z,3.50
2022-12-06T14:41:19.081Z,3.60
2022-12-06T14:43:49.304Z,3.28
2022-12-06T14:46:18.337Z,3.22
2022-12-06T14:49:04.378Z,3.33
2022-12-06T14:51:38.101Z,3.65
2022-12-06T14:54:30.923Z,3.80
2022-12-06T14:56:58.086Z,3.83
2022-12-06T15:00:10.976Z,3.60
2022-12-06T15:02:24.750Z,3.97
2022-12-06T15:04:54.837Z,4.28
2022-12-06T15:07:39.080Z,4.47
2022-12-06T15:10:25.851Z,4.35
2022-12-06T15:12:56.752Z,4.13
2022-12-06T15:15:42.284Z,4.25
2022-12-06T15:18:26.198Z,4.40
2022-12-06T15:20:54.475Z,4.60
2022-12-06T15:23:55.077Z,4.40
2022-12-06T15:26:23.882Z,4.43
2022-12-06T15:28:51.684Z,4.45
2022-12-06T15:31:27.379Z,4.45
2022-12-06T15:33:55.301Z,4.63
2022-12-06T15:36:33.233Z,4.63
2022-12-06T15:39:00.223Z,4.78
2022-12-06T15:41:28.608Z,5.13
2022-12-06T15:44:00.464Z,4.68
2022-12-06T15:46:29.898Z,4.85
2022-12-06T15:48:57.336Z,4.82
2022-12-06T15:51:27.971Z,4.95
2022-12-06T15:53:59.212Z,4.70
2022-12-06T16:21:57.822Z,5.00
2022-12-06T16:24:24.874Z,5.47
2022-12-06T16:26:51.843Z,5.85
2022-12-06T16:29:24.871Z,5.80
2022-12-06T16:31:52.992Z,6.25
2022-12-06T16:34:20.924Z,5.85
2022-12-06T16:37:04.854Z,5.57
2022-12-06T16:39:34.290Z,6.10
2022-12-06T16:42:03.452Z,5.80
2022-12-06T16:44:30.683Z,5.95
2022-12-06T16:46:58.065Z,5.93
2022-12-06T16:49:45.853Z,6.38
2022-12-06T16:52:14.007Z,5.78
2022-12-06T16:54:41.640Z,5.90
2022-12-06T16:57:12.787Z,6.50
2022-12-06T16:59:40.644Z,6.15
2022-12-06T17:02:19.082Z,5.93
2022-12-06T17:04:45.929Z,6.70
2022-12-06T17:07:12.828Z,5.70
2022-12-06T17:09:39.708Z,5.00
2022-12-06T17:12:12.772Z,5.28
2022-12-06T17:14:40.285Z,5.47
2022-12-06T17:17:12.384Z,5.10
2022-12-06T17:19:39.266Z,5.40
2022-12-06T17:22:07.379Z,5.30
2022-12-06T17:24:34.206Z,5.15
2022-12-06T17:27:01.514Z,5.00
2022-12-06T17:29:29.289Z,5.28
2022-12-06T17:31:56.787Z,4.80
2022-12-06T17:34:25.884Z,5.10
2022-12-06T17:36:52.935Z,14.30
2022-12-06T17:39:21.713Z,6.65
2022-12-06T17:42:07.377Z,5.40
2022-12-06T17:44:34.645Z,5.45
2022-12-06T17:47:01.880Z,5.50
2022-12-06T17:49:29.063Z,5.57
2022-12-06T17:51:56.424Z,5.35
2022-12-06T17:54:23.274Z,5.47
2022-12-06T17:56:52.451Z,4.97
2022-12-06T17:59:27.447Z,5.13
2022-12-06T18:02:15.246Z,4.88
2022-12-06T18:04:43.989Z,5.35
2022-12-06T18:07:12.254Z,5.70
2022-12-06T18:21:53.221Z,5.30
2022-12-06T18:24:23.952Z,5.30
2022-12-06T18:26:53.720Z,5.32
2022-12-06T18:29:23.584Z,5.22
2022-12-06T18:31:51.765Z,5.60
2022-12-06T18:34:19.770Z,5.38
2022-12-06T18:36:47.624Z,6.25
2022-12-06T18:39:16.638Z,5.60
2022-12-06T18:41:44.630Z,6.72
2022-12-06T18:44:12.572Z,6.75
2022-12-06T18:46:42.513Z,6.10
2022-12-06T18:49:11.465Z,6.30
2022-12-06T18:51:39.063Z,7.00
2022-12-06T18:54:06.969Z,6.78
2022-12-06T18:56:35.315Z,7.22
2022-12-06T18:59:04.589Z,7.18
2022-12-06T19:01:34.613Z,6.85
2022-12-06T19:04:03.509Z,7.18
2022-12-06T19:06:33.016Z,7.57
2022-12-06T19:09:12.662Z,6.95
2022-12-06T19:11:41.622Z,7.22
2022-12-06T19:14:08.911Z,6.72
2022-12-06T19:16:41.365Z,8.00
2022-12-06T19:19:16.194Z,7.70
2022-12-06T19:21:45.674Z,8.77
2022-12-06T19:24:15.432Z,9.18
2022-12-06T19:26:42.707Z,7.90
2022-12-06T19:29:10.081Z,9.35
2022-12-06T19:31:36.859Z,10.35
2022-12-06T19:34:03.667Z,9.65
2022-12-06T19:36:31.770Z,9.00
2022-12-06T19:39:01.697Z,9.18
2022-12-06T19:41:28.885Z,8.23
2022-12-06T19:44:14.290Z,7.20
2022-12-06T19:46:46.446Z,7.28
2022-12-06T19:49:14.482Z,7.53
2022-12-06T19:51:45.444Z,6.82
2022-12-06T19:54:16.824Z,6.70
2022-12-06T19:56:43.706Z,7.15
2022-12-06T19:59:13.681Z,6.95
2022-12-06T20:01:43.051Z,6.75
2022-12-06T20:04:18.070Z,7.32
2022-12-06T20:06:45.864Z,6.90
2022-12-06T20:09:13.601Z,7.43
2022-12-06T20:12:01.487Z,7.97
2022-12-06T20:14:34.512Z,7.85
2022-12-06T20:17:02.098Z,7.57
2022-12-06T20:19:29.150Z,7.40
2022-12-06T20:21:56.280Z,7.35
2022-12-06T20:24:23.565Z,7.93
2022-12-06T20:26:52.499Z,8.00
2022-12-06T20:29:20.593Z,7.80
2022-12-06T20:31:52.053Z,7.43
2022-12-06T20:34:19.100Z,7.80
2022-12-06T20:36:46.439Z,6.90
2022-12-06T20:39:22.138Z,7.70
2022-12-06T20:41:49.800Z,7.72
2022-12-06T20:44:17.548Z,7.80
2022-12-06T20:46:44.910Z,7.88
2022-12-06T20:49:11.833Z,8.20
2022-12-06T20:51:38.690Z,8.40
2022-12-06T20:54:06.905Z,8.00
2022-12-06T20:56:37.775Z,7.88
2022-12-06T20:59:05.970Z,8.73
2022-12-06T21:01:39.536Z,9.27
2022-12-06T21:04:07.009Z,9.15
2022-12-06T21:06:33.835Z,8.95
2022-12-06T21:09:01.175Z,8.63
2022-12-06T21:11:28.466Z,9.10
2022-12-06T21:13:57.083Z,8.43
2022-12-06T21:16:29.444Z,8.25
2022-12-06T21:19:08.125Z,9.10
2022-12-06T21:21:37.921Z,9.00
2022-12-06T21:24:11.867Z,9.05
2022-12-06T21:26:38.902Z,8.55
2022-12-06T21:29:05.995Z,8.90
2022-12-06T21:31:36.532Z,8.95
2022-12-06T21:34:04.147Z,8.70
2022-12-06T21:36:31.229Z,8.95
2022-12-06T21:38:58.890Z,8.82
2022-12-06T21:41:26.650Z,8.90
2022-12-06T21:43:53.743Z,8.70
2022-12-06T21:46:23.506Z,9.63
2022-12-06T21:48:52.023Z,9.43
2022-12-06T21:51:20.129Z,9.02
2022-12-06T21:53:47.498Z,9.38
2022-12-06T21:56:23.038Z,9.65
2022-12-06T21:58:50.310Z,10.00
2022-12-06T22:01:19.785Z,9.38
2022-12-06T22:03:51.292Z,9.57
2022-12-06T22:06:18.397Z,9.05
2022-12-06T22:08:46.865Z,10.27
2022-12-06T22:11:16.499Z,9.00
2022-12-06T22:13:44.076Z,9.18
2022-12-06T22:16:12.627Z,9.02
2022-12-06T22:18:44.756Z,8.30
2022-12-06T22:21:21.392Z,8.90
2022-12-06T22:23:48.764Z,9.15
2022-12-06T22:26:18.173Z,8.27
2022-12-06T22:28:45.407Z,8.75
2022-12-06T22:31:13.683Z,8.77
2022-12-06T22:33:41.549Z,9.25
2022-12-06T22:36:10.023Z,8.65
2022-12-06T22:38:37.580Z,9.27
2022-12-06T22:41:05.451Z,9.98
2022-12-06T22:43:33.480Z,8.90
2022-12-06T22:46:09.407Z,9.07
2022-12-06T22:48:37.050Z,9.68
2022-12-06T22:51:22.474Z,8.55
2022-12-06T22:53:56.969Z,8.73
2022-12-06T22:56:25.255Z,8.80
2022-12-06T22:58:53.831Z,9.52
2022-12-06T23:01:23.799Z,9.07
2022-12-06T23:03:53.110Z,9.25
2022-12-06T23:06:23.374Z,9.45
2022-12-06T23:08:51.159Z,9.82
2022-12-06T23:11:26.752Z,9.13
2022-12-06T23:13:55.028Z,8.93
2022-12-06T23:16:25.337Z,9.38
2022-12-06T23:18:52.451Z,9.27
2022-12-06T23:21:28.059Z,9.13
2022-12-06T23:23:57.555Z,9.07
2022-12-06T23:26:26.877Z,8.98
2022-12-06T23:28:53.835Z,9.02
2022-12-06T23:31:26.883Z,8.63
2022-12-06T23:33:59.413Z,9.48
2022-12-06T23:36:29.888Z,10.40
2022-12-06T23:38:56.953Z,9.18
2022-12-06T23:41:27.227Z,8.82
2022-12-06T23:43:55.192Z,8.80
2022-12-06T23:46:27.623Z,8.88
2022-12-06T23:48:55.407Z,8.65
2022-12-06T23:51:34.145Z,8.65
2022-12-06T23:54:03.137Z,8.23
2022-12-06T23:56:34.400Z,8.43
2022-12-06T23:59:02.478Z,8.45
